AFL1525 ULLI-UMKK
Flight info
| Callsign | AFL1525 |
|---|---|
| Flight time | N/A |
| Altitude | 36000 |
| Route | UTETA1B UTETA DCT PISIS DCT ARANS/N0449F360 DCT PIDIN DCT PISIM DCT PIRUX DCT PIVAX/N0446F370 DCT GARSO DCT AGONA DCT TURIP TURIP3F |
| Aircraft | A320/M-SDE3FGHIRWY/LB1 |
Departure
| Time | 2026-05-08 05:44 |
|---|---|
| Airport | Pulkovo Airport (ULLI) |
Arrival
| Time | N/A |
|---|---|
| Airport | Khrabrovo Airport (UMKK) |
| Time | Latitude | Longitude | Altitude | Speed | Heading |
|---|---|---|---|---|---|
| 2026-05-08 04:54 | 59.79778 | 30.26685 | 87 ft | 0 kts | 95° |
| 2026-05-08 05:33 | 59.79779 | 30.26663 | 85 ft | 4 kts | 100° |
| 2026-05-08 05:33 | 59.79786 | 30.26613 | 83 ft | 4 kts | 120° |
| 2026-05-08 05:33 | 59.79802 | 30.26571 | 85 ft | 4 kts | 141° |
| 2026-05-08 05:34 | 59.79825 | 30.26548 | 86 ft | 4 kts | 176° |
| 2026-05-08 05:34 | 59.79837 | 30.26548 | 85 ft | 0 kts | 197° |
| 2026-05-08 05:36 | 59.79836 | 30.26548 | 85 ft | 1 kts | 197° |
| 2026-05-08 05:37 | 59.79804 | 30.26529 | 84 ft | 8 kts | 196° |
| 2026-05-08 05:37 | 59.79737 | 30.26491 | 87 ft | 10 kts | 196° |
| 2026-05-08 05:37 | 59.79675 | 30.26454 | 84 ft | 9 kts | 197° |
| 2026-05-08 05:37 | 59.79623 | 30.26422 | 85 ft | 7 kts | 197° |
| 2026-05-08 05:38 | 59.79579 | 30.26396 | 84 ft | 6 kts | 195° |
| 2026-05-08 05:38 | 59.79544 | 30.26376 | 85 ft | 6 kts | 196° |
| 2026-05-08 05:38 | 59.79493 | 30.26381 | 88 ft | 8 kts | 135° |
| 2026-05-08 05:38 | 59.79477 | 30.26486 | 86 ft | 10 kts | 105° |
| 2026-05-08 05:39 | 59.79453 | 30.26648 | 89 ft | 14 kts | 107° |
| 2026-05-08 05:39 | 59.79419 | 30.26864 | 88 ft | 18 kts | 106° |
| 2026-05-08 05:39 | 59.79386 | 30.27093 | 87 ft | 16 kts | 106° |
| 2026-05-08 05:39 | 59.79356 | 30.27294 | 90 ft | 14 kts | 106° |
| 2026-05-08 05:40 | 59.79330 | 30.27469 | 89 ft | 12 kts | 106° |
| 2026-05-08 05:40 | 59.79307 | 30.27621 | 90 ft | 11 kts | 106° |
| 2026-05-08 05:40 | 59.79288 | 30.27753 | 89 ft | 11 kts | 106° |
| 2026-05-08 05:40 | 59.79260 | 30.27938 | 90 ft | 17 kts | 106° |
| 2026-05-08 05:41 | 59.79227 | 30.28148 | 91 ft | 12 kts | 112° |
| 2026-05-08 05:41 | 59.79178 | 30.28227 | 92 ft | 4 kts | 165° |
| 2026-05-08 05:41 | 59.79177 | 30.28227 | 92 ft | 0 kts | 165° |
| 2026-05-08 05:42 | 59.79171 | 30.28230 | 91 ft | 4 kts | 165° |
| 2026-05-08 05:42 | 59.79106 | 30.28262 | 90 ft | 13 kts | 169° |
| 2026-05-08 05:42 | 59.79047 | 30.28192 | 90 ft | 10 kts | 260° |
| 2026-05-08 05:43 | 59.79054 | 30.28118 | 92 ft | 0 kts | 286° |
| 2026-05-08 05:43 | 59.79073 | 30.27989 | 89 ft | 32 kts | 287° |
| 2026-05-08 05:44 | 59.79208 | 30.27090 | 86 ft | 100 kts | 287° |
| 2026-05-08 05:44 | 59.79460 | 30.25403 | 85 ft | 152 kts | 286° |
| 2026-05-08 05:44 | 59.79766 | 30.23324 | 627 ft | 156 kts | 287° |
| 2026-05-08 05:44 | 59.80071 | 30.21261 | 1392 ft | 157 kts | 291° |
| 2026-05-08 05:45 | 59.80398 | 30.19074 | 1915 ft | 176 kts | 291° |
| 2026-05-08 05:45 | 59.80772 | 30.16600 | 2272 ft | 200 kts | 290° |
| 2026-05-08 05:45 | 59.81195 | 30.13797 | 2722 ft | 224 kts | 290° |
| 2026-05-08 05:45 | 59.81656 | 30.10691 | 3304 ft | 242 kts | 289° |
| 2026-05-08 05:46 | 59.82132 | 30.07441 | 4223 ft | 247 kts | 288° |
| 2026-05-08 05:46 | 59.82610 | 30.04146 | 5191 ft | 249 kts | 289° |
| 2026-05-08 05:46 | 59.83094 | 30.00827 | 6183 ft | 251 kts | 288° |
| 2026-05-08 05:46 | 59.83443 | 29.97421 | 7130 ft | 255 kts | 276° |
| 2026-05-08 05:47 | 59.83326 | 29.93855 | 7907 ft | 264 kts | 263° |
| 2026-05-08 05:47 | 59.82960 | 29.90269 | 8582 ft | 266 kts | 262° |
| 2026-05-08 05:47 | 59.82581 | 29.86655 | 9492 ft | 268 kts | 262° |
| 2026-05-08 05:47 | 59.82195 | 29.83004 | 10362 ft | 272 kts | 263° |
| 2026-05-08 05:48 | 59.81799 | 29.79220 | 10771 ft | 291 kts | 263° |
| 2026-05-08 05:48 | 59.81382 | 29.75183 | 11096 ft | 311 kts | 263° |
| 2026-05-08 05:48 | 59.80933 | 29.70880 | 11792 ft | 316 kts | 263° |
| 2026-05-08 05:48 | 59.80487 | 29.66647 | 12606 ft | 318 kts | 263° |
| 2026-05-08 05:49 | 59.80026 | 29.62291 | 13469 ft | 318 kts | 263° |
| 2026-05-08 05:49 | 59.79572 | 29.58036 | 14268 ft | 319 kts | 263° |
| 2026-05-08 05:49 | 59.79111 | 29.53727 | 15001 ft | 320 kts | 263° |
| 2026-05-08 05:49 | 59.78651 | 29.49404 | 15678 ft | 321 kts | 262° |
| 2026-05-08 05:50 | 59.78188 | 29.45051 | 16380 ft | 323 kts | 263° |
| 2026-05-08 05:50 | 59.77719 | 29.40672 | 17071 ft | 325 kts | 262° |
| 2026-05-08 05:50 | 59.77246 | 29.36281 | 17759 ft | 327 kts | 262° |
| 2026-05-08 05:50 | 59.76768 | 29.31853 | 18435 ft | 329 kts | 262° |
| 2026-05-08 05:51 | 59.76285 | 29.27400 | 19023 ft | 331 kts | 262° |
| 2026-05-08 05:51 | 59.75797 | 29.22923 | 19599 ft | 333 kts | 262° |
| 2026-05-08 05:51 | 59.75304 | 29.18422 | 20147 ft | 335 kts | 261° |
| 2026-05-08 05:51 | 59.74807 | 29.13893 | 20700 ft | 337 kts | 261° |
| 2026-05-08 05:52 | 59.74306 | 29.09335 | 21242 ft | 339 kts | 261° |
| 2026-05-08 05:52 | 59.73882 | 29.04729 | 21771 ft | 340 kts | 267° |
| 2026-05-08 05:52 | 59.73928 | 29.00051 | 22287 ft | 340 kts | 278° |
| 2026-05-08 05:52 | 59.74491 | 28.95484 | 22790 ft | 344 kts | 287° |
| 2026-05-08 05:53 | 59.75244 | 28.90969 | 23279 ft | 346 kts | 287° |
| 2026-05-08 05:53 | 59.75993 | 28.86412 | 23763 ft | 349 kts | 286° |
| 2026-05-08 05:53 | 59.76742 | 28.81818 | 24174 ft | 351 kts | 286° |
| 2026-05-08 05:53 | 59.77494 | 28.77178 | 24583 ft | 353 kts | 285° |
| 2026-05-08 05:54 | 59.78242 | 28.72516 | 25014 ft | 355 kts | 286° |
| 2026-05-08 05:54 | 59.78990 | 28.67826 | 25412 ft | 357 kts | 286° |
| 2026-05-08 05:54 | 59.79742 | 28.63116 | 25793 ft | 359 kts | 286° |
| 2026-05-08 05:54 | 59.80504 | 28.58377 | 26180 ft | 361 kts | 286° |
| 2026-05-08 05:55 | 59.81269 | 28.53612 | 26555 ft | 363 kts | 286° |
| 2026-05-08 05:55 | 59.82039 | 28.48819 | 26921 ft | 365 kts | 285° |
| 2026-05-08 05:55 | 59.82813 | 28.43992 | 27296 ft | 367 kts | 285° |
| 2026-05-08 05:55 | 59.83576 | 28.39194 | 27656 ft | 369 kts | 285° |
| 2026-05-08 05:56 | 59.84347 | 28.34313 | 28019 ft | 371 kts | 285° |
| 2026-05-08 05:56 | 59.85120 | 28.29398 | 28378 ft | 373 kts | 285° |
| 2026-05-08 05:56 | 59.85898 | 28.24452 | 28729 ft | 376 kts | 285° |
| 2026-05-08 05:56 | 59.86679 | 28.19480 | 29071 ft | 378 kts | 285° |
| 2026-05-08 05:57 | 59.87472 | 28.14408 | 29406 ft | 380 kts | 285° |
| 2026-05-08 05:57 | 59.88245 | 28.09440 | 29734 ft | 382 kts | 285° |
| 2026-05-08 05:57 | 59.89032 | 28.04370 | 30021 ft | 384 kts | 286° |
| 2026-05-08 05:57 | 59.89822 | 27.99278 | 30313 ft | 386 kts | 286° |
| 2026-05-08 05:58 | 59.90619 | 27.94144 | 30563 ft | 388 kts | 286° |
| 2026-05-08 05:58 | 59.91414 | 27.88992 | 30815 ft | 390 kts | 285° |
| 2026-05-08 05:58 | 59.92212 | 27.83803 | 31069 ft | 392 kts | 285° |
| 2026-05-08 05:58 | 59.93009 | 27.78608 | 31322 ft | 393 kts | 285° |
| 2026-05-08 05:59 | 59.93805 | 27.73398 | 31666 ft | 392 kts | 285° |
| 2026-05-08 05:59 | 59.94599 | 27.68198 | 32026 ft | 391 kts | 285° |
| 2026-05-08 05:59 | 59.95388 | 27.63017 | 32384 ft | 390 kts | 285° |
| 2026-05-08 05:59 | 59.96174 | 27.57847 | 32723 ft | 389 kts | 285° |
| 2026-05-08 06:00 | 59.96954 | 27.52685 | 33069 ft | 388 kts | 285° |
| 2026-05-08 06:00 | 59.97730 | 27.47523 | 33424 ft | 387 kts | 285° |
| 2026-05-08 06:00 | 59.98500 | 27.42372 | 33756 ft | 387 kts | 285° |
| 2026-05-08 06:00 | 59.99269 | 27.37220 | 34093 ft | 386 kts | 285° |
| 2026-05-08 06:01 | 60.00032 | 27.32085 | 34403 ft | 386 kts | 285° |
| 2026-05-08 06:01 | 60.00793 | 27.26942 | 34657 ft | 386 kts | 285° |
| 2026-05-08 06:01 | 60.01553 | 27.21786 | 34891 ft | 387 kts | 285° |
| 2026-05-08 06:01 | 60.02315 | 27.16621 | 35110 ft | 388 kts | 285° |
| 2026-05-08 06:02 | 60.03067 | 27.11503 | 35320 ft | 389 kts | 285° |
| 2026-05-08 06:02 | 60.03829 | 27.06308 | 35478 ft | 390 kts | 285° |
| 2026-05-08 06:02 | 60.04440 | 27.01035 | 35687 ft | 390 kts | 277° |
| 2026-05-08 06:02 | 60.04548 | 26.95611 | 35888 ft | 391 kts | 267° |
| 2026-05-08 06:03 | 60.04133 | 26.90196 | 36087 ft | 394 kts | 260° |
| 2026-05-08 06:03 | 60.03543 | 26.84834 | 36249 ft | 395 kts | 260° |
| 2026-05-08 06:03 | 60.02953 | 26.79462 | 36299 ft | 395 kts | 260° |
| 2026-05-08 06:04 | 60.01777 | 26.68756 | 36301 ft | 394 kts | 260° |
| 2026-05-08 06:04 | 60.00593 | 26.58065 | 36302 ft | 394 kts | 260° |
| 2026-05-08 06:05 | 59.99405 | 26.47380 | 36301 ft | 394 kts | 260° |
| 2026-05-08 06:05 | 59.98213 | 26.36774 | 36304 ft | 394 kts | 259° |
| 2026-05-08 06:06 | 59.96996 | 26.26084 | 36306 ft | 394 kts | 259° |
| 2026-05-08 06:06 | 59.95775 | 26.15430 | 36305 ft | 394 kts | 259° |
| 2026-05-08 06:07 | 59.94545 | 26.04789 | 36301 ft | 393 kts | 259° |
| 2026-05-08 06:07 | 59.93315 | 25.94137 | 36320 ft | 395 kts | 259° |
| 2026-05-08 06:08 | 59.92071 | 25.83457 | 36316 ft | 395 kts | 259° |
| 2026-05-08 06:08 | 59.90822 | 25.72863 | 36320 ft | 395 kts | 259° |
| 2026-05-08 06:09 | 59.89561 | 25.62209 | 36308 ft | 395 kts | 259° |
| 2026-05-08 06:09 | 59.88283 | 25.51568 | 36313 ft | 395 kts | 259° |
| 2026-05-08 06:10 | 59.86998 | 25.40951 | 36313 ft | 395 kts | 259° |
| 2026-05-08 06:10 | 59.85705 | 25.30331 | 36312 ft | 395 kts | 259° |
| 2026-05-08 06:11 | 59.84412 | 25.19724 | 36315 ft | 395 kts | 259° |
| 2026-05-08 06:11 | 59.83115 | 25.09112 | 36325 ft | 395 kts | 259° |
| 2026-05-08 06:12 | 59.81796 | 24.98498 | 36301 ft | 397 kts | 259° |
| 2026-05-08 06:12 | 59.80469 | 24.87909 | 36307 ft | 397 kts | 259° |
| 2026-05-08 06:13 | 59.79349 | 24.79042 | 36307 ft | 398 kts | 258° |
| 2026-05-08 06:13 | 59.78000 | 24.68376 | 36307 ft | 398 kts | 258° |
| 2026-05-08 06:14 | 59.76642 | 24.57732 | 36317 ft | 398 kts | 258° |
| 2026-05-08 06:14 | 59.75265 | 24.47065 | 36316 ft | 398 kts | 258° |
| 2026-05-08 06:15 | 59.73790 | 24.36467 | 36318 ft | 399 kts | 256° |
| 2026-05-08 06:15 | 59.72183 | 24.26013 | 36324 ft | 399 kts | 256° |
| 2026-05-08 06:16 | 59.70540 | 24.15508 | 36314 ft | 400 kts | 256° |
| 2026-05-08 06:16 | 59.68906 | 24.04956 | 36293 ft | 402 kts | 256° |
| 2026-05-08 06:17 | 59.66458 | 23.89000 | 36312 ft | 404 kts | 256° |
| 2026-05-08 06:17 | 59.64804 | 23.78364 | 36316 ft | 404 kts | 256° |
| 2026-05-08 06:18 | 59.63130 | 23.67721 | 36320 ft | 405 kts | 256° |
| 2026-05-08 06:18 | 59.61470 | 23.57175 | 36327 ft | 405 kts | 256° |
| 2026-05-08 06:19 | 59.59788 | 23.46555 | 36332 ft | 405 kts | 256° |
| 2026-05-08 06:19 | 59.58097 | 23.35944 | 36329 ft | 405 kts | 256° |
| 2026-05-08 06:20 | 59.56409 | 23.25397 | 36334 ft | 406 kts | 255° |
| 2026-05-08 06:20 | 59.54577 | 23.14847 | 36333 ft | 409 kts | 249° |
| 2026-05-08 06:21 | 59.52142 | 23.04715 | 36332 ft | 409 kts | 248° |
| 2026-05-08 06:21 | 59.49692 | 22.94580 | 36334 ft | 409 kts | 248° |
| 2026-05-08 06:22 | 59.47250 | 22.84466 | 36340 ft | 410 kts | 248° |
| 2026-05-08 06:22 | 59.44796 | 22.74342 | 36343 ft | 410 kts | 248° |
| 2026-05-08 06:23 | 59.42333 | 22.64238 | 36342 ft | 410 kts | 248° |
| 2026-05-08 06:23 | 59.39875 | 22.54213 | 36343 ft | 410 kts | 248° |
| 2026-05-08 06:24 | 59.37390 | 22.44133 | 36320 ft | 411 kts | 247° |
| 2026-05-08 06:24 | 59.34896 | 22.34039 | 36324 ft | 412 kts | 247° |
| 2026-05-08 06:25 | 59.32383 | 22.23935 | 36327 ft | 413 kts | 247° |
| 2026-05-08 06:25 | 59.29852 | 22.13814 | 36328 ft | 413 kts | 247° |
| 2026-05-08 06:26 | 59.27334 | 22.03773 | 36328 ft | 414 kts | 247° |
| 2026-05-08 06:26 | 59.24790 | 21.93658 | 36337 ft | 414 kts | 247° |
| 2026-05-08 06:27 | 59.22240 | 21.83578 | 36340 ft | 414 kts | 246° |
| 2026-05-08 06:27 | 59.19673 | 21.73504 | 36313 ft | 415 kts | 246° |
| 2026-05-08 06:28 | 59.17090 | 21.63411 | 36326 ft | 416 kts | 246° |
| 2026-05-08 06:28 | 59.14499 | 21.53311 | 36330 ft | 417 kts | 246° |
| 2026-05-08 06:29 | 59.11897 | 21.43194 | 36339 ft | 418 kts | 246° |
| 2026-05-08 06:29 | 59.09297 | 21.33157 | 36342 ft | 418 kts | 245° |
| 2026-05-08 06:30 | 59.06457 | 21.23278 | 36344 ft | 421 kts | 235° |
| 2026-05-08 06:30 | 59.02095 | 21.15595 | 36342 ft | 430 kts | 214° |
| 2026-05-08 06:31 | 58.99393 | 21.13057 | 36318 ft | 434 kts | 202° |
| 2026-05-08 06:31 | 58.96521 | 21.11185 | 36320 ft | 436 kts | 201° |
| 2026-05-08 06:31 | 58.90752 | 21.07482 | 36322 ft | 437 kts | 201° |
| 2026-05-08 06:32 | 58.84974 | 21.03776 | 36328 ft | 438 kts | 201° |
| 2026-05-08 06:32 | 58.79185 | 21.00086 | 36331 ft | 438 kts | 201° |
| 2026-05-08 06:33 | 58.73388 | 20.96386 | 36320 ft | 438 kts | 200° |
| 2026-05-08 06:33 | 58.67628 | 20.92727 | 36325 ft | 438 kts | 200° |
| 2026-05-08 06:34 | 58.61832 | 20.89060 | 36337 ft | 438 kts | 200° |
| 2026-05-08 06:34 | 58.56042 | 20.85413 | 36338 ft | 438 kts | 200° |
| 2026-05-08 06:35 | 58.50251 | 20.81785 | 36341 ft | 438 kts | 200° |
| 2026-05-08 06:35 | 58.44458 | 20.78165 | 36329 ft | 438 kts | 199° |
| 2026-05-08 06:36 | 58.38659 | 20.74553 | 36335 ft | 438 kts | 199° |
| 2026-05-08 06:36 | 58.32867 | 20.70946 | 36336 ft | 438 kts | 199° |
| 2026-05-08 06:37 | 58.27077 | 20.67358 | 36336 ft | 437 kts | 199° |
| 2026-05-08 06:37 | 58.21328 | 20.63824 | 36335 ft | 437 kts | 199° |
| 2026-05-08 06:38 | 58.15539 | 20.60269 | 36329 ft | 437 kts | 199° |
| 2026-05-08 06:38 | 58.09745 | 20.56719 | 36330 ft | 438 kts | 199° |
| 2026-05-08 06:39 | 58.03952 | 20.53163 | 36334 ft | 437 kts | 199° |
| 2026-05-08 06:39 | 57.98156 | 20.49631 | 36334 ft | 438 kts | 198° |
| 2026-05-08 06:40 | 57.92348 | 20.46125 | 36331 ft | 438 kts | 198° |
| 2026-05-08 06:40 | 57.86580 | 20.42644 | 36328 ft | 438 kts | 198° |
| 2026-05-08 06:41 | 57.80769 | 20.39154 | 36327 ft | 438 kts | 198° |
| 2026-05-08 06:41 | 57.74957 | 20.35657 | 36323 ft | 439 kts | 198° |
| 2026-05-08 06:42 | 57.69145 | 20.32167 | 36322 ft | 439 kts | 198° |
| 2026-05-08 06:42 | 57.63319 | 20.28686 | 36322 ft | 439 kts | 197° |
| 2026-05-08 06:43 | 57.57489 | 20.25230 | 36324 ft | 439 kts | 197° |
| 2026-05-08 06:43 | 57.51710 | 20.21816 | 36316 ft | 438 kts | 197° |
| 2026-05-08 06:44 | 57.45912 | 20.18385 | 36319 ft | 436 kts | 197° |
| 2026-05-08 06:44 | 57.40133 | 20.14976 | 36321 ft | 434 kts | 197° |
| 2026-05-08 06:45 | 57.34369 | 20.11605 | 36317 ft | 434 kts | 197° |
| 2026-05-08 06:45 | 57.28601 | 20.08240 | 36317 ft | 433 kts | 197° |
| 2026-05-08 06:46 | 57.22856 | 20.04880 | 36313 ft | 433 kts | 197° |
| 2026-05-08 06:46 | 57.17130 | 20.01543 | 36314 ft | 434 kts | 197° |
| 2026-05-08 06:47 | 57.11376 | 19.98214 | 36313 ft | 433 kts | 197° |
| 2026-05-08 06:47 | 57.05614 | 19.94903 | 36568 ft | 433 kts | 197° |
| 2026-05-08 06:48 | 57.02733 | 19.93281 | 36823 ft | 432 kts | 194° |
| 2026-05-08 06:48 | 56.99786 | 19.92305 | 37084 ft | 430 kts | 184° |
| 2026-05-08 06:48 | 56.96792 | 19.92280 | 37260 ft | 432 kts | 175° |
| 2026-05-08 06:48 | 56.93802 | 19.92898 | 37302 ft | 432 kts | 174° |
| 2026-05-08 06:49 | 56.87819 | 19.94118 | 37308 ft | 432 kts | 174° |
| 2026-05-08 06:49 | 56.81871 | 19.95272 | 37296 ft | 432 kts | 175° |
| 2026-05-08 06:50 | 56.75895 | 19.96419 | 37296 ft | 432 kts | 175° |
| 2026-05-08 06:50 | 56.69920 | 19.97587 | 37291 ft | 431 kts | 174° |
| 2026-05-08 06:51 | 56.63938 | 19.98747 | 36965 ft | 432 kts | 174° |
| 2026-05-08 06:51 | 56.60952 | 19.99327 | 36707 ft | 432 kts | 174° |
| 2026-05-08 06:51 | 56.57957 | 19.99910 | 36456 ft | 433 kts | 174° |
| 2026-05-08 06:52 | 56.54969 | 20.00490 | 36203 ft | 431 kts | 174° |
| 2026-05-08 06:52 | 56.51983 | 20.01072 | 35951 ft | 430 kts | 174° |
| 2026-05-08 06:52 | 56.49041 | 20.01646 | 35714 ft | 430 kts | 174° |
| 2026-05-08 06:52 | 56.46066 | 20.02225 | 35444 ft | 430 kts | 174° |
| 2026-05-08 06:53 | 56.43096 | 20.02798 | 35203 ft | 429 kts | 174° |
| 2026-05-08 06:53 | 56.40120 | 20.03366 | 34493 ft | 432 kts | 174° |
| 2026-05-08 06:53 | 56.37113 | 20.03937 | 33590 ft | 435 kts | 175° |
| 2026-05-08 06:53 | 56.34120 | 20.04508 | 33111 ft | 427 kts | 175° |
| 2026-05-08 06:54 | 56.31184 | 20.05070 | 32533 ft | 422 kts | 175° |
| 2026-05-08 06:54 | 56.28283 | 20.05622 | 31994 ft | 416 kts | 176° |
| 2026-05-08 06:54 | 56.25428 | 20.06166 | 31430 ft | 410 kts | 176° |
| 2026-05-08 06:54 | 56.22613 | 20.06702 | 30898 ft | 403 kts | 176° |
| 2026-05-08 06:55 | 56.19839 | 20.07233 | 30374 ft | 397 kts | 177° |
| 2026-05-08 06:55 | 56.17114 | 20.07756 | 29801 ft | 390 kts | 176° |
| 2026-05-08 06:55 | 56.14454 | 20.08507 | 29265 ft | 386 kts | 169° |
| 2026-05-08 06:55 | 56.11909 | 20.09968 | 28740 ft | 382 kts | 163° |
| 2026-05-08 06:56 | 56.09425 | 20.11567 | 28215 ft | 377 kts | 163° |
| 2026-05-08 06:56 | 56.07007 | 20.13113 | 27716 ft | 372 kts | 163° |
| 2026-05-08 06:56 | 56.04587 | 20.14663 | 27230 ft | 367 kts | 163° |
| 2026-05-08 06:56 | 56.02198 | 20.16196 | 26735 ft | 362 kts | 162° |
| 2026-05-08 06:57 | 55.99838 | 20.17715 | 26270 ft | 358 kts | 162° |
| 2026-05-08 06:57 | 55.97508 | 20.19212 | 25821 ft | 354 kts | 161° |
| 2026-05-08 06:57 | 55.95196 | 20.20686 | 25369 ft | 351 kts | 161° |
| 2026-05-08 06:57 | 55.93196 | 20.21958 | 25078 ft | 326 kts | 161° |
| 2026-05-08 06:58 | 55.91089 | 20.23316 | 24876 ft | 334 kts | 161° |
| 2026-05-08 06:58 | 55.88793 | 20.24820 | 24737 ft | 367 kts | 160° |
| 2026-05-08 06:58 | 55.86309 | 20.26472 | 24594 ft | 395 kts | 160° |
| 2026-05-08 06:58 | 55.83692 | 20.28236 | 24485 ft | 418 kts | 159° |
| 2026-05-08 06:59 | 55.80916 | 20.30121 | 24382 ft | 437 kts | 159° |
| 2026-05-08 06:59 | 55.78022 | 20.32089 | 24275 ft | 454 kts | 159° |
| 2026-05-08 06:59 | 55.75026 | 20.34128 | 24235 ft | 466 kts | 159° |
| 2026-05-08 06:59 | 55.71973 | 20.36208 | 24445 ft | 472 kts | 159° |
| 2026-05-08 07:00 | 55.68900 | 20.38304 | 24788 ft | 474 kts | 159° |
| 2026-05-08 07:00 | 55.65813 | 20.40417 | 25227 ft | 474 kts | 160° |
| 2026-05-08 07:00 | 55.62775 | 20.42530 | 26076 ft | 464 kts | 160° |